createdAt,value
2022-12-13T00:02:25.946Z,101169.84
2022-12-13T00:07:27.660Z,101160.63
2022-12-13T00:12:29.459Z,101159.75
2022-12-13T00:17:33.073Z,101156.31
2022-12-13T00:22:34.937Z,101153.84
2022-12-13T00:27:36.685Z,101150.53
2022-12-13T00:32:38.263Z,101155.53
2022-12-13T00:37:39.827Z,101156.63
2022-12-13T00:42:41.460Z,101149.16
2022-12-13T00:47:43.053Z,101148.69
2022-12-13T00:52:44.680Z,101141.31
2022-12-13T00:57:46.331Z,101143.09
2022-12-13T01:02:49.029Z,101139.88
2022-12-13T01:07:50.754Z,101144.38
2022-12-13T01:12:52.328Z,101124.75
2022-12-13T01:17:53.922Z,101138.03
2022-12-13T01:22:55.575Z,101136.34
2022-12-13T01:27:57.325Z,101135.00
2022-12-13T01:32:58.899Z,101130.47
2022-12-13T01:38:01.688Z,101139.09
2022-12-13T01:43:14.486Z,101132.44
2022-12-13T01:48:21.920Z,101133.00
2022-12-13T01:53:29.308Z,101136.00
2022-12-13T01:58:31.841Z,101140.06
2022-12-13T02:03:34.772Z,101141.09
2022-12-13T02:08:38.941Z,101133.88
2022-12-13T02:13:40.552Z,101128.56
2022-12-13T02:19:06.568Z,101128.75
2022-12-13T02:24:26.833Z,101118.38
2022-12-13T02:29:58.479Z,101120.94
2022-12-13T02:35:10.124Z,101122.50
2022-12-13T02:40:26.328Z,101115.38
2022-12-13T02:45:34.727Z,101117.53
2022-12-13T02:50:37.899Z,101115.47
2022-12-13T02:55:40.590Z,101117.06
2022-12-13T03:01:02.974Z,101113.59
2022-12-13T03:06:34.042Z,101114.88
2022-12-13T03:12:22.152Z,101110.22
2022-12-13T03:17:25.975Z,101118.84
2022-12-13T03:22:27.665Z,101109.88
2022-12-13T03:27:29.348Z,101099.72
2022-12-13T03:32:30.951Z,101097.31
2022-12-13T03:37:33.498Z,101105.31
2022-12-13T03:42:35.200Z,101105.31
2022-12-13T03:47:36.973Z,101107.50
2022-12-13T03:52:38.916Z,101101.19
2022-12-13T03:57:40.515Z,101110.59
2022-12-13T04:02:42.190Z,101106.38
2022-12-13T04:07:48.338Z,101106.78
2022-12-13T04:13:09.149Z,101098.09
2022-12-13T04:18:10.928Z,101093.06
2022-12-13T04:23:12.773Z,101085.81
2022-12-13T04:28:22.541Z,101090.16
2022-12-13T04:33:24.802Z,101087.28
2022-12-13T04:38:26.528Z,101090.31
2022-12-13T04:43:28.172Z,101083.75
2022-12-13T04:48:31.219Z,101079.50
2022-12-13T04:53:33.494Z,101086.34
2022-12-13T04:58:35.272Z,101082.91
2022-12-13T05:03:38.329Z,101079.38
2022-12-13T05:08:40.810Z,101068.44
2022-12-13T05:13:42.647Z,101075.47
2022-12-13T05:19:13.013Z,101074.78
2022-12-13T05:24:14.615Z,101069.97
2022-12-13T05:29:16.277Z,101067.03
2022-12-13T05:34:17.843Z,101057.88
2022-12-13T05:39:28.362Z,101055.88
2022-12-13T05:44:32.673Z,101055.13
2022-12-13T05:49:34.415Z,101053.53
2022-12-13T05:54:36.060Z,101051.16
2022-12-13T05:59:37.937Z,101066.28
2022-12-13T06:04:40.589Z,101069.19
2022-12-13T06:09:42.452Z,101057.22
2022-12-13T06:14:44.084Z,101059.28
2022-12-13T06:19:46.511Z,101060.84
2022-12-13T06:24:48.251Z,101058.03
2022-12-13T06:29:49.998Z,101063.38
2022-12-13T06:34:51.681Z,101064.13
2022-12-13T06:39:53.293Z,101061.28
2022-12-13T06:44:56.185Z,101056.59
2022-12-13T06:49:58.392Z,101049.72
2022-12-13T06:55:07.869Z,101056.75
2022-12-13T07:00:11.327Z,101059.03
2022-12-13T07:05:13.023Z,101068.31
2022-12-13T07:10:21.970Z,101065.53
2022-12-13T07:15:25.924Z,101072.97
2022-12-13T07:20:27.839Z,101070.25
2022-12-13T07:25:29.878Z,101076.88
2022-12-13T07:30:34.520Z,101091.13
2022-12-13T07:35:43.338Z,101083.81
2022-12-13T07:40:44.988Z,101078.97
2022-12-13T07:45:46.653Z,101087.16
2022-12-13T07:50:54.540Z,101086.97
2022-12-13T07:55:56.663Z,101093.69
2022-12-13T08:01:05.943Z,101095.44
2022-12-13T08:06:10.138Z,101097.56
2022-12-13T08:11:15.538Z,101103.34
2022-12-13T08:16:26.202Z,101082.63
2022-12-13T08:21:53.887Z,101080.50
2022-12-13T08:27:02.689Z,101088.28
2022-12-13T08:32:10.120Z,101093.50
2022-12-13T08:37:12.927Z,101100.47
2022-12-13T08:42:20.133Z,101102.13
2022-12-13T08:47:26.247Z,101112.53
2022-12-13T08:52:28.326Z,101109.34
2022-12-13T08:57:30.297Z,101112.69
2022-12-13T09:02:32.377Z,101109.03
2022-12-13T09:07:43.099Z,101103.47
2022-12-13T09:12:44.812Z,101106.50
2022-12-13T09:17:52.197Z,101108.53
2022-12-13T09:23:01.922Z,101103.28
2022-12-13T09:28:07.668Z,101103.28
2022-12-13T09:33:28.238Z,101110.34
2022-12-13T10:03:32.006Z,101087.16
2022-12-13T10:08:48.473Z,101090.94
2022-12-13T10:19:37.694Z,101081.84
2022-12-13T10:25:06.861Z,101080.78
2022-12-13T10:30:29.158Z,101071.88
2022-12-13T10:35:44.383Z,101062.91
2022-12-13T10:40:54.385Z,101060.94
2022-12-13T10:46:02.655Z,101059.47
2022-12-13T10:57:02.317Z,101053.16
2022-12-13T11:14:05.200Z,101048.28
2022-12-13T11:19:26.734Z,101047.63
2022-12-13T11:42:38.029Z,101019.81
2022-12-13T11:47:52.296Z,101013.75
2022-12-13T11:53:21.282Z,100997.75
2022-12-13T11:59:01.722Z,100997.09
2022-12-13T12:09:43.460Z,100986.56
2022-12-13T12:15:05.164Z,101000.41
2022-12-13T12:32:52.916Z,100999.94
2022-12-13T12:38:28.768Z,100999.00
2022-12-13T12:43:46.223Z,100992.47
2022-12-13T12:49:08.180Z,100973.53
2022-12-13T13:06:35.258Z,100949.16
2022-12-13T13:11:43.647Z,100943.09
2022-12-13T13:16:50.272Z,100947.66
2022-12-13T13:22:02.721Z,100940.97
2022-12-13T13:27:15.829Z,100942.34
2022-12-13T13:32:30.420Z,100934.34
2022-12-13T13:37:48.647Z,100927.78
2022-12-13T13:43:12.959Z,100918.84
2022-12-13T13:48:37.339Z,100918.50
2022-12-13T13:54:19.095Z,100919.47
2022-12-13T13:59:43.609Z,100905.53
2022-12-13T14:05:14.454Z,100909.41
2022-12-13T14:10:37.688Z,100894.81
2022-12-13T14:16:20.874Z,100901.97
2022-12-13T14:21:59.907Z,100884.63
2022-12-13T14:27:21.070Z,100895.06
2022-12-13T14:32:41.479Z,100881.25
2022-12-13T14:37:44.526Z,100882.41
2022-12-13T14:42:57.014Z,100870.16
2022-12-13T14:48:07.953Z,100879.66
2022-12-13T14:53:28.136Z,100872.28
2022-12-13T14:58:30.766Z,100873.69
2022-12-13T15:03:34.620Z,100870.88
2022-12-13T15:14:12.895Z,100858.41
2022-12-13T15:19:29.456Z,100858.19
2022-12-13T15:24:49.585Z,100854.19
2022-12-13T15:30:07.937Z,100844.84
2022-12-13T15:35:18.910Z,100840.69
2022-12-13T15:40:22.879Z,100835.50
2022-12-13T15:45:38.199Z,100832.72
2022-12-13T15:50:48.772Z,100833.13
2022-12-13T15:56:07.833Z,100829.66
2022-12-13T16:01:27.518Z,100849.44
2022-12-13T16:06:34.340Z,100835.09
2022-12-13T16:12:02.978Z,100837.47
2022-12-13T16:17:27.143Z,100840.63
2022-12-13T16:22:30.036Z,100825.25
2022-12-13T16:27:32.471Z,100814.16
2022-12-13T16:32:55.912Z,100817.53
2022-12-13T16:38:09.390Z,100812.81
2022-12-13T16:43:29.414Z,100802.50
2022-12-13T16:48:38.270Z,100805.38
2022-12-13T16:53:40.332Z,100808.38
2022-12-13T16:58:57.821Z,100807.13
2022-12-13T17:04:01.664Z,100817.22
2022-12-13T17:09:06.550Z,100809.75
2022-12-13T17:14:11.829Z,100812.09
2022-12-13T17:19:15.813Z,100801.75
2022-12-13T17:24:17.635Z,100807.84
2022-12-13T17:29:21.123Z,100799.75
2022-12-13T17:34:41.362Z,100803.31
2022-12-13T17:39:43.528Z,100806.94
2022-12-13T17:44:45.324Z,100794.44
2022-12-13T17:49:47.134Z,100798.41
2022-12-13T17:54:50.814Z,100785.00
2022-12-13T17:59:52.508Z,100787.47
2022-12-13T18:04:54.267Z,100778.44
2022-12-13T18:09:56.448Z,100775.69
2022-12-13T18:14:58.118Z,100766.19
2022-12-13T18:20:00.969Z,100769.28
2022-12-13T18:25:02.783Z,100766.06
2022-12-13T18:30:06.821Z,100771.81
2022-12-13T18:35:08.826Z,100758.28
2022-12-13T18:40:11.046Z,100756.97
2022-12-13T18:45:17.984Z,100741.13
2022-12-13T18:50:21.798Z,100749.78
2022-12-13T18:55:47.733Z,100747.63
2022-12-13T19:00:51.491Z,100745.78
2022-12-13T19:05:56.783Z,100741.00
2022-12-13T19:11:11.077Z,100727.84
2022-12-13T19:16:19.465Z,100740.97
2022-12-13T19:21:22.923Z,100724.16
2022-12-13T19:26:26.960Z,100718.41
2022-12-13T19:31:32.490Z,100725.75
2022-12-13T19:36:34.612Z,100725.88
2022-12-13T19:41:36.788Z,100702.09
2022-12-13T19:46:40.637Z,100694.84
2022-12-13T19:51:42.692Z,100695.91
2022-12-13T19:56:44.569Z,100689.63
2022-12-13T20:01:46.485Z,100689.69
2022-12-13T20:06:48.347Z,100687.22
2022-12-13T20:11:50.147Z,100686.63
2022-12-13T20:16:51.899Z,100670.38
2022-12-13T20:21:57.043Z,100670.97
2022-12-13T20:26:59.105Z,100660.41
2022-12-13T20:32:01.067Z,100670.22
2022-12-13T20:37:03.722Z,100657.47
2022-12-13T20:42:05.445Z,100645.88
2022-12-13T20:47:07.171Z,100641.78
2022-12-13T20:52:08.826Z,100633.50
2022-12-13T20:57:10.474Z,100620.78
2022-12-13T21:02:12.833Z,100611.19
2022-12-13T21:07:34.594Z,100605.69
2022-12-13T21:12:36.478Z,100619.16
2022-12-13T21:17:39.147Z,100602.09
2022-12-13T21:22:40.726Z,100603.00
2022-12-13T21:27:42.359Z,100613.88
2022-12-13T21:32:47.221Z,100602.72
2022-12-13T21:37:51.514Z,100598.25
2022-12-13T21:42:53.184Z,100599.34
2022-12-13T21:47:54.857Z,100598.66
2022-12-13T21:52:56.603Z,100596.16
2022-12-13T21:58:17.160Z,100578.34
2022-12-13T22:03:18.829Z,100572.81
2022-12-13T22:08:20.475Z,100578.34
2022-12-13T22:13:22.086Z,100568.03
2022-12-13T22:18:24.295Z,100553.75
2022-12-13T22:23:26.204Z,100560.09
2022-12-13T22:28:29.520Z,100543.66
2022-12-13T22:33:31.505Z,100553.75
2022-12-13T22:38:33.500Z,100555.19
2022-12-13T22:43:36.609Z,100540.97
2022-12-13T22:48:38.424Z,100528.81
2022-12-13T22:53:42.391Z,100528.47
2022-12-13T22:58:44.514Z,100524.75
2022-12-13T23:03:46.883Z,100511.22
2022-12-13T23:08:53.947Z,100512.34
2022-12-13T23:13:57.874Z,100507.31
2022-12-13T23:19:31.693Z,100509.66
2022-12-13T23:24:22.521Z,100516.91
2022-12-13T23:29:24.637Z,100502.84
2022-12-13T23:34:26.464Z,100493.13
2022-12-13T23:39:28.345Z,100496.44
2022-12-13T23:44:30.060Z,100485.16
2022-12-13T23:49:31.747Z,100484.66
2022-12-13T23:54:33.606Z,100497.34
2022-12-13T23:59:36.028Z,100489.56
